createdAt,value
2023-03-03T00:00:20.294Z,0.00
2023-03-03T00:01:20.301Z,0.00
2023-03-03T00:02:21.338Z,0.00
2023-03-03T00:03:20.279Z,0.00
2023-03-03T00:04:20.326Z,0.00
2023-03-03T00:05:20.304Z,0.00
2023-03-03T00:06:20.333Z,0.00
2023-03-03T00:07:20.300Z,0.00
2023-03-03T00:08:20.257Z,0.00
2023-03-03T00:09:20.246Z,0.00
2023-03-03T00:10:20.389Z,0.00
2023-03-03T00:11:20.373Z,0.00
2023-03-03T00:12:20.245Z,0.00
2023-03-03T00:13:20.380Z,0.00
2023-03-03T00:14:20.236Z,0.00
2023-03-03T00:15:20.225Z,0.00
2023-03-03T00:16:20.312Z,0.00
2023-03-03T00:17:20.240Z,0.00
2023-03-03T00:18:21.331Z,0.00
2023-03-03T00:19:20.287Z,0.00
2023-03-03T00:20:20.185Z,0.00
2023-03-03T00:21:20.168Z,0.00
2023-03-03T00:22:20.211Z,0.00
2023-03-03T00:23:20.162Z,0.00
2023-03-03T00:24:20.171Z,0.00
2023-03-03T00:25:20.203Z,0.00
2023-03-03T00:26:20.183Z,0.00
2023-03-03T00:27:20.181Z,0.00
2023-03-03T00:28:20.147Z,0.00
2023-03-03T00:29:20.161Z,0.00
2023-03-03T00:30:20.126Z,0.00
2023-03-03T00:31:20.331Z,0.00
2023-03-03T00:32:20.531Z,0.00
2023-03-03T00:33:20.141Z,0.00
2023-03-03T00:34:20.211Z,0.00
2023-03-03T00:35:20.113Z,0.00
2023-03-03T00:36:20.086Z,0.00
2023-03-03T00:37:20.146Z,0.00
2023-03-03T00:38:20.070Z,0.00
2023-03-03T00:39:20.051Z,0.00
2023-03-03T00:40:20.052Z,0.00
2023-03-03T00:41:20.063Z,0.00
2023-03-03T00:42:20.092Z,0.00
2023-03-03T00:43:20.075Z,0.00
2023-03-03T00:44:20.033Z,0.00
2023-03-03T00:45:20.013Z,0.00
2023-03-03T00:46:20.098Z,0.00
2023-03-03T00:47:20.012Z,0.00
2023-03-03T00:48:20.058Z,0.00
2023-03-03T00:49:20.054Z,0.00
2023-03-03T00:50:20.016Z,0.00
2023-03-03T00:51:19.992Z,0.00
2023-03-03T00:52:19.970Z,0.00
2023-03-03T00:53:19.989Z,0.00
2023-03-03T00:54:19.958Z,0.00
2023-03-03T00:55:19.963Z,0.00
2023-03-03T00:56:19.956Z,0.00
2023-03-03T00:57:19.950Z,0.00
2023-03-03T00:58:19.973Z,0.00
2023-03-03T00:59:19.938Z,0.00
2023-03-03T01:00:20.093Z,0.00
2023-03-03T01:01:20.049Z,0.00
2023-03-03T01:02:19.930Z,0.00
2023-03-03T01:03:20.912Z,0.00
2023-03-03T01:04:19.909Z,0.00
2023-03-03T01:05:19.926Z,0.00
2023-03-03T01:06:19.926Z,0.00
2023-03-03T01:07:19.907Z,0.00
2023-03-03T01:08:19.892Z,0.00
2023-03-03T01:09:19.908Z,0.00
2023-03-03T01:10:19.872Z,0.00
2023-03-03T01:11:19.902Z,0.00
2023-03-03T01:12:19.893Z,0.00
2023-03-03T01:13:19.860Z,0.00
2023-03-03T01:14:19.911Z,0.00
2023-03-03T01:15:19.921Z,0.00
2023-03-03T01:16:19.914Z,0.00
2023-03-03T01:17:19.837Z,0.00
2023-03-03T01:18:19.843Z,0.00
2023-03-03T01:19:19.820Z,0.00
2023-03-03T01:20:19.820Z,0.00
2023-03-03T01:21:19.846Z,0.00
2023-03-03T01:22:19.801Z,0.00
2023-03-03T01:23:19.814Z,0.00
2023-03-03T01:24:19.800Z,0.00
2023-03-03T01:25:19.804Z,0.00
2023-03-03T01:26:19.768Z,0.00
2023-03-03T01:27:19.781Z,0.00
2023-03-03T01:28:19.788Z,0.00
2023-03-03T01:29:19.760Z,0.00
2023-03-03T01:30:19.760Z,0.00
2023-03-03T01:31:19.798Z,0.00
2023-03-03T01:32:19.798Z,0.00
2023-03-03T01:33:19.772Z,0.00
2023-03-03T01:34:19.745Z,0.00
2023-03-03T01:35:19.773Z,0.00
2023-03-03T01:36:19.757Z,0.00
2023-03-03T01:37:20.711Z,0.00
2023-03-03T01:38:19.736Z,0.00
2023-03-03T01:39:19.701Z,0.00
2023-03-03T01:40:19.684Z,0.00
2023-03-03T01:41:19.714Z,0.00
2023-03-03T01:42:19.669Z,0.00
2023-03-03T01:43:19.708Z,0.00
2023-03-03T01:44:19.651Z,0.00
2023-03-03T01:45:19.657Z,0.00
2023-03-03T01:46:20.263Z,0.00
2023-03-03T01:47:19.664Z,0.00
2023-03-03T01:48:19.699Z,0.00
2023-03-03T01:49:19.643Z,0.00
2023-03-03T01:50:20.691Z,0.00
2023-03-03T01:51:19.641Z,0.00
2023-03-03T01:52:19.650Z,0.00
2023-03-03T01:53:19.594Z,0.00
2023-03-03T01:54:19.601Z,0.00
2023-03-03T01:55:19.616Z,0.00
2023-03-03T01:56:19.598Z,0.00
2023-03-03T01:57:19.633Z,0.00
2023-03-03T01:58:19.581Z,0.00
2023-03-03T01:59:19.573Z,0.00
2023-03-03T02:00:19.580Z,0.00
2023-03-03T02:01:19.632Z,0.00
2023-03-03T02:02:19.567Z,0.00
2023-03-03T02:03:19.570Z,0.00
2023-03-03T02:04:19.589Z,0.00
2023-03-03T02:05:19.579Z,0.00
2023-03-03T02:06:19.546Z,0.00
2023-03-03T02:07:19.528Z,0.00
2023-03-03T02:08:19.579Z,0.00
2023-03-03T02:09:19.559Z,0.00
2023-03-03T02:10:19.525Z,0.00
2023-03-03T02:11:19.510Z,0.00
2023-03-03T02:12:19.509Z,0.00
2023-03-03T02:13:19.509Z,0.00
2023-03-03T02:14:19.526Z,0.00
2023-03-03T02:15:19.499Z,0.00
2023-03-03T02:16:19.590Z,0.00
2023-03-03T02:17:19.475Z,0.00
2023-03-03T02:18:19.479Z,0.00
2023-03-03T02:19:19.492Z,0.00
2023-03-03T02:20:19.467Z,0.00
2023-03-03T02:21:19.486Z,0.00
2023-03-03T02:22:19.441Z,0.00
2023-03-03T02:23:19.445Z,0.00
2023-03-03T02:24:19.447Z,0.00
2023-03-03T02:25:20.485Z,0.00
2023-03-03T02:26:19.447Z,0.00
2023-03-03T02:27:19.428Z,0.00
2023-03-03T02:28:19.427Z,0.00
2023-03-03T02:29:19.428Z,0.00
2023-03-03T02:30:19.425Z,0.00
2023-03-03T02:31:19.470Z,0.00
2023-03-03T02:32:19.435Z,0.00
2023-03-03T02:33:19.377Z,0.00
2023-03-03T02:34:19.378Z,0.00
2023-03-03T02:35:19.416Z,0.00
2023-03-03T02:36:19.377Z,0.00
2023-03-03T02:37:19.350Z,0.00
2023-03-03T02:38:19.360Z,0.00
2023-03-03T02:39:20.334Z,0.00
2023-03-03T02:40:19.335Z,0.00
2023-03-03T02:41:19.387Z,0.00
2023-03-03T02:42:19.373Z,0.00
2023-03-03T02:43:19.344Z,0.00
2023-03-03T02:44:19.325Z,0.00
2023-03-03T02:45:19.329Z,0.00
2023-03-03T02:46:19.334Z,0.00
2023-03-03T02:47:19.332Z,0.00
2023-03-03T02:48:19.287Z,0.00
2023-03-03T02:49:19.281Z,0.00
2023-03-03T02:50:19.278Z,0.00
2023-03-03T02:51:19.262Z,0.00
2023-03-03T02:52:19.282Z,0.00
2023-03-03T02:53:19.266Z,0.00
2023-03-03T02:54:19.308Z,0.00
2023-03-03T02:55:19.267Z,0.00
2023-03-03T02:56:20.225Z,0.00
2023-03-03T02:57:19.248Z,0.00
2023-03-03T02:58:19.235Z,0.00
2023-03-03T02:59:19.218Z,0.00
2023-03-03T03:00:19.215Z,0.00
2023-03-03T03:01:19.220Z,0.00
2023-03-03T03:02:19.222Z,0.00
2023-03-03T03:03:19.195Z,0.00
2023-03-03T03:04:20.241Z,0.00
2023-03-03T03:05:19.285Z,0.00
2023-03-03T03:06:19.246Z,0.00
2023-03-03T03:07:19.166Z,0.00
2023-03-03T03:08:19.189Z,0.00
2023-03-03T03:09:19.166Z,0.00
2023-03-03T03:10:19.157Z,0.00
2023-03-03T03:11:19.201Z,0.00
2023-03-03T03:12:19.159Z,0.00
2023-03-03T03:13:19.130Z,0.00
2023-03-03T03:14:19.143Z,0.00
2023-03-03T03:15:19.160Z,0.00
2023-03-03T03:16:19.147Z,0.00
2023-03-03T03:17:19.162Z,0.00
2023-03-03T03:18:19.094Z,0.00
2023-03-03T03:19:20.121Z,0.00
2023-03-03T03:20:19.103Z,0.00
2023-03-03T03:21:19.092Z,0.00
2023-03-03T03:22:19.090Z,0.00
2023-03-03T03:23:19.104Z,0.00
2023-03-03T03:24:19.094Z,0.00
2023-03-03T03:25:19.098Z,0.00
2023-03-03T03:26:19.089Z,0.00
2023-03-03T03:27:19.107Z,0.00
2023-03-03T03:28:20.062Z,0.00
2023-03-03T03:29:19.051Z,0.00
2023-03-03T03:30:19.079Z,0.00
2023-03-03T03:31:19.023Z,0.00
2023-03-03T03:32:19.064Z,0.00
2023-03-03T03:33:19.036Z,0.00
2023-03-03T03:34:19.014Z,0.00
2023-03-03T03:35:19.066Z,0.00
2023-03-03T03:36:19.047Z,0.00
2023-03-03T03:37:19.002Z,0.00
2023-03-03T03:38:18.988Z,0.00
2023-03-03T03:39:18.996Z,0.00
2023-03-03T03:40:18.961Z,0.00
2023-03-03T03:41:19.004Z,0.00
2023-03-03T03:42:18.980Z,0.00
2023-03-03T03:43:18.961Z,0.00
2023-03-03T03:44:18.963Z,0.00
2023-03-03T03:45:18.964Z,0.00
2023-03-03T03:46:18.981Z,0.00
2023-03-03T03:47:18.959Z,0.00
2023-03-03T03:48:18.932Z,0.00
2023-03-03T03:49:20.784Z,0.00
2023-03-03T03:50:19.946Z,0.00
2023-03-03T03:51:18.931Z,0.00
2023-03-03T03:52:18.938Z,0.00
2023-03-03T03:53:18.907Z,0.00
2023-03-03T03:54:18.926Z,0.00
2023-03-03T03:55:18.905Z,0.00
2023-03-03T03:56:18.895Z,0.00
2023-03-03T03:57:18.901Z,0.00
2023-03-03T03:58:18.873Z,0.00
2023-03-03T03:59:18.869Z,0.00
2023-03-03T04:00:18.865Z,0.00
2023-03-03T04:01:18.858Z,0.00
2023-03-03T04:02:18.925Z,0.00
2023-03-03T04:03:19.090Z,0.00
2023-03-03T04:04:18.929Z,0.00
2023-03-03T04:05:18.848Z,0.00
2023-03-03T04:06:18.853Z,0.00
2023-03-03T04:07:18.814Z,0.00
2023-03-03T04:08:18.849Z,0.00
2023-03-03T04:09:18.851Z,0.00
2023-03-03T04:10:18.844Z,0.00
2023-03-03T04:11:18.831Z,0.00
2023-03-03T04:12:18.795Z,0.00
2023-03-03T04:13:18.778Z,0.00
2023-03-03T04:14:18.786Z,0.00
2023-03-03T04:15:18.807Z,0.00
2023-03-03T04:16:18.770Z,0.00
2023-03-03T04:17:18.826Z,0.00
2023-03-03T04:18:18.776Z,0.00
2023-03-03T04:19:18.776Z,0.00
2023-03-03T04:20:18.781Z,0.00
2023-03-03T04:21:18.760Z,0.00
2023-03-03T04:22:18.779Z,0.00
2023-03-03T04:23:18.745Z,0.00
2023-03-03T04:24:18.749Z,0.00
2023-03-03T04:25:18.714Z,0.00
2023-03-03T04:26:18.741Z,0.00
2023-03-03T04:27:18.717Z,0.00
2023-03-03T04:28:18.742Z,0.00
2023-03-03T04:29:18.754Z,0.00
2023-03-03T04:30:18.722Z,0.00
2023-03-03T04:31:18.752Z,0.00
2023-03-03T04:32:18.734Z,0.00
2023-03-03T04:33:18.683Z,0.00
2023-03-03T04:34:18.677Z,0.00
2023-03-03T04:35:18.689Z,0.00
2023-03-03T04:36:18.656Z,0.00
2023-03-03T04:37:18.691Z,0.00
2023-03-03T04:38:18.649Z,0.00
2023-03-03T04:39:18.644Z,0.00
2023-03-03T04:40:18.647Z,0.00
2023-03-03T04:41:18.670Z,0.00
2023-03-03T04:42:18.652Z,0.00
2023-03-03T04:43:18.688Z,0.00
2023-03-03T04:44:18.628Z,0.00
2023-03-03T04:45:18.623Z,0.00
2023-03-03T04:46:18.957Z,0.00
2023-03-03T04:47:18.731Z,0.00
2023-03-03T04:48:18.786Z,0.00
2023-03-03T04:49:18.610Z,0.00
2023-03-03T04:50:18.589Z,0.00
2023-03-03T04:51:18.580Z,0.00
2023-03-03T04:52:18.626Z,0.00
2023-03-03T04:53:18.574Z,0.00
2023-03-03T04:54:18.602Z,0.00
2023-03-03T04:55:18.566Z,0.00
2023-03-03T04:56:18.560Z,0.00
2023-03-03T04:57:18.578Z,0.00
2023-03-03T04:58:18.554Z,0.00
2023-03-03T04:59:18.567Z,0.00
2023-03-03T05:00:18.594Z,0.00
2023-03-03T05:01:18.524Z,0.00
2023-03-03T05:02:18.678Z,0.00
2023-03-03T05:03:18.522Z,0.00
2023-03-03T05:04:18.552Z,0.00
2023-03-03T05:05:18.518Z,0.00
2023-03-03T05:06:18.519Z,0.00
2023-03-03T05:07:18.529Z,0.00
2023-03-03T05:08:18.532Z,0.00
2023-03-03T05:09:18.466Z,0.00
2023-03-03T05:10:18.466Z,0.00
2023-03-03T05:11:18.479Z,0.00
2023-03-03T05:12:18.499Z,0.00
2023-03-03T05:13:18.479Z,0.00
2023-03-03T05:14:18.468Z,0.00
2023-03-03T05:15:18.441Z,0.00
2023-03-03T05:16:18.451Z,0.00
2023-03-03T05:17:18.407Z,0.00
2023-03-03T05:18:18.485Z,0.00
2023-03-03T05:19:18.429Z,0.00
2023-03-03T05:20:18.414Z,0.00
2023-03-03T05:21:18.410Z,0.00
2023-03-03T05:22:18.389Z,0.00
2023-03-03T05:23:18.395Z,0.00
2023-03-03T05:24:18.417Z,0.00
2023-03-03T05:25:18.367Z,0.00
2023-03-03T05:26:18.368Z,0.00
2023-03-03T05:27:18.371Z,0.00
2023-03-03T05:28:18.371Z,0.00
2023-03-03T05:29:18.381Z,0.00
2023-03-03T05:30:18.334Z,0.00
2023-03-03T05:31:18.410Z,0.00
2023-03-03T05:32:18.529Z,0.00
2023-03-03T05:33:18.343Z,0.00
2023-03-03T05:34:18.303Z,0.00
2023-03-03T05:35:18.353Z,0.00
2023-03-03T05:36:18.305Z,0.00
2023-03-03T05:37:18.328Z,0.00
2023-03-03T05:38:18.321Z,0.00
2023-03-03T05:39:18.297Z,0.00
2023-03-03T05:40:18.306Z,0.00
2023-03-03T05:41:18.282Z,0.00
2023-03-03T05:42:18.282Z,0.00
2023-03-03T05:43:18.432Z,0.00
2023-03-03T05:44:20.563Z,0.00
2023-03-03T05:45:19.277Z,0.00
2023-03-03T05:46:18.345Z,0.00
2023-03-03T05:47:18.248Z,0.00
2023-03-03T05:48:18.242Z,0.00
2023-03-03T05:49:18.246Z,0.00
2023-03-03T05:50:18.233Z,0.00
2023-03-03T05:51:18.267Z,0.00
2023-03-03T05:52:18.257Z,0.00
2023-03-03T05:53:18.213Z,0.00
2023-03-03T05:54:18.239Z,0.00
2023-03-03T05:55:18.227Z,0.00
2023-03-03T05:56:18.245Z,0.00
2023-03-03T05:57:18.224Z,0.00
2023-03-03T05:58:18.189Z,0.00
2023-03-03T05:59:18.175Z,0.00
2023-03-03T06:00:18.169Z,0.00
2023-03-03T06:01:18.227Z,0.00
2023-03-03T06:02:18.177Z,0.00
2023-03-03T06:03:18.272Z,0.00
2023-03-03T06:04:19.161Z,0.00
2023-03-03T06:05:18.137Z,0.00
2023-03-03T06:06:18.142Z,0.00
2023-03-03T06:07:18.147Z,0.00
2023-03-03T06:08:18.160Z,0.00
2023-03-03T06:09:18.141Z,0.00
2023-03-03T06:10:18.135Z,0.00
2023-03-03T06:11:18.127Z,0.00
2023-03-03T06:12:18.134Z,0.00
2023-03-03T06:13:25.330Z,0.00
2023-03-03T06:14:18.119Z,0.00
2023-03-03T06:15:18.155Z,0.00
2023-03-03T06:16:18.164Z,0.00
2023-03-03T06:17:18.131Z,0.00
2023-03-03T06:18:18.117Z,0.00
2023-03-03T06:19:18.077Z,0.00
2023-03-03T06:20:18.116Z,0.00
2023-03-03T06:21:18.093Z,0.00
2023-03-03T06:22:18.078Z,0.00
2023-03-03T06:23:18.080Z,0.00
2023-03-03T06:24:18.135Z,0.00
2023-03-03T06:25:18.049Z,0.00
2023-03-03T06:26:18.054Z,0.00
2023-03-03T06:27:18.048Z,0.00
2023-03-03T06:28:18.061Z,0.00
2023-03-03T06:29:18.042Z,0.00
2023-03-03T06:30:18.019Z,0.00
2023-03-03T06:31:18.080Z,0.00
2023-03-03T06:32:18.156Z,0.00
2023-03-03T06:33:18.009Z,0.00
2023-03-03T06:34:18.057Z,0.00
2023-03-03T06:35:18.116Z,0.00
2023-03-03T06:36:18.032Z,0.00
2023-03-03T06:37:17.975Z,0.00
2023-03-03T06:38:18.053Z,0.00
2023-03-03T06:39:18.211Z,0.00
2023-03-03T06:40:18.221Z,0.00
2023-03-03T06:41:17.998Z,0.00
2023-03-03T06:42:17.954Z,0.00
2023-03-03T06:43:18.102Z,0.00
2023-03-03T06:44:17.956Z,0.00
2023-03-03T06:45:17.971Z,0.00
2023-03-03T06:46:17.942Z,0.00
2023-03-03T06:47:17.913Z,0.00
2023-03-03T06:48:17.955Z,0.00
2023-03-03T06:49:17.911Z,0.00
2023-03-03T06:50:17.909Z,0.00
2023-03-03T06:51:17.906Z,0.00
2023-03-03T06:52:17.951Z,0.00
2023-03-03T06:53:17.920Z,0.00
2023-03-03T06:54:18.881Z,0.00
2023-03-03T06:55:17.874Z,0.00
2023-03-03T06:56:17.894Z,0.00
2023-03-03T06:57:17.942Z,0.00
2023-03-03T06:58:17.901Z,0.00
2023-03-03T06:59:17.831Z,0.00
2023-03-03T07:00:18.902Z,0.00
2023-03-03T07:01:17.957Z,0.00
2023-03-03T07:02:17.915Z,0.00
2023-03-03T07:03:17.863Z,0.00
2023-03-03T07:04:17.857Z,0.00
2023-03-03T07:05:17.846Z,0.00
2023-03-03T07:06:17.912Z,0.00
2023-03-03T07:07:17.860Z,0.00
2023-03-03T07:08:17.858Z,0.00
2023-03-03T07:09:17.856Z,5.62
2023-03-03T07:10:17.806Z,5.62
2023-03-03T07:11:17.786Z,5.62
2023-03-03T07:12:17.804Z,5.62
2023-03-03T07:13:17.817Z,5.62
2023-03-03T07:14:17.783Z,5.62
2023-03-03T07:15:17.775Z,5.62
2023-03-03T07:16:17.814Z,5.62
2023-03-03T07:17:17.756Z,5.62
2023-03-03T07:18:17.798Z,5.62
2023-03-03T07:19:17.781Z,5.62
2023-03-03T07:20:17.747Z,5.62
2023-03-03T07:21:17.737Z,5.62
2023-03-03T07:22:17.791Z,5.62
2023-03-03T07:23:17.788Z,5.62
2023-03-03T07:24:17.773Z,5.62
2023-03-03T07:25:17.748Z,5.62
2023-03-03T07:26:17.737Z,5.62
2023-03-03T07:27:17.784Z,5.62
2023-03-03T07:28:17.716Z,5.62
2023-03-03T07:29:17.745Z,5.62
2023-03-03T07:30:17.716Z,5.62
2023-03-03T07:31:17.753Z,5.62
2023-03-03T07:32:17.830Z,5.62
2023-03-03T07:33:17.671Z,5.62
2023-03-03T07:34:17.699Z,5.62
2023-03-03T07:35:17.705Z,5.62
2023-03-03T07:36:17.658Z,5.62
2023-03-03T07:37:17.715Z,5.62
2023-03-03T07:38:17.697Z,5.62
2023-03-03T07:39:17.649Z,5.62
2023-03-03T07:40:17.667Z,5.62
2023-03-03T07:41:17.671Z,5.62
2023-03-03T07:42:17.639Z,5.62
2023-03-03T07:43:17.618Z,5.62
2023-03-03T07:44:17.625Z,5.62
2023-03-03T07:45:17.751Z,5.62
2023-03-03T07:46:17.697Z,5.62
2023-03-03T07:47:17.640Z,5.62
2023-03-03T07:48:17.603Z,5.62
2023-03-03T07:49:17.630Z,5.62
2023-03-03T07:50:17.598Z,5.62
2023-03-03T07:51:17.611Z,5.62
2023-03-03T07:52:17.582Z,5.62
2023-03-03T07:53:17.576Z,5.62
2023-03-03T07:54:17.605Z,5.62
2023-03-03T07:55:17.553Z,5.62
2023-03-03T07:56:17.549Z,5.62
2023-03-03T07:57:17.590Z,5.62
2023-03-03T07:58:17.590Z,5.62
2023-03-03T07:59:17.569Z,5.62
2023-03-03T08:00:17.647Z,5.62
2023-03-03T08:01:17.530Z,11.25
2023-03-03T08:02:17.558Z,11.25
2023-03-03T08:03:17.526Z,11.25
2023-03-03T08:04:17.700Z,11.25
2023-03-03T08:05:17.624Z,11.25
2023-03-03T08:06:17.496Z,11.25
2023-03-03T08:07:17.522Z,11.25
2023-03-03T08:08:17.573Z,11.25
2023-03-03T08:09:17.497Z,11.25
2023-03-03T08:10:17.491Z,11.25
2023-03-03T08:11:17.465Z,11.25
2023-03-03T08:12:17.498Z,11.25
2023-03-03T08:13:17.484Z,11.25
2023-03-03T08:14:17.458Z,11.25
2023-03-03T08:15:17.450Z,11.25
2023-03-03T08:16:17.466Z,11.25
2023-03-03T08:17:17.464Z,11.25
2023-03-03T08:18:17.466Z,11.25
2023-03-03T08:19:17.431Z,11.25
2023-03-03T08:20:17.415Z,11.25
2023-03-03T08:21:17.417Z,11.25
2023-03-03T08:22:17.422Z,11.25
2023-03-03T08:23:17.494Z,11.25
2023-03-03T08:24:17.419Z,11.25
2023-03-03T08:25:17.398Z,11.25
2023-03-03T08:26:17.407Z,11.25
2023-03-03T08:27:17.348Z,11.25
2023-03-03T08:28:17.369Z,11.25
2023-03-03T08:29:17.394Z,11.25
2023-03-03T08:30:17.357Z,11.25
2023-03-03T08:31:30.893Z,11.25
2023-03-03T08:32:19.434Z,11.25
2023-03-03T08:33:17.333Z,11.25
2023-03-03T08:34:17.386Z,11.25
2023-03-03T08:35:17.313Z,11.25
2023-03-03T08:36:17.341Z,11.25
2023-03-03T08:37:17.322Z,11.25
2023-03-03T08:38:17.345Z,11.25
2023-03-03T08:39:17.296Z,11.25
2023-03-03T08:40:17.331Z,11.25
2023-03-03T08:41:17.351Z,11.25
2023-03-03T08:42:17.321Z,11.25
2023-03-03T08:43:17.295Z,11.25
2023-03-03T08:44:17.332Z,11.25
2023-03-03T08:45:17.294Z,11.25
2023-03-03T08:46:17.310Z,11.25
2023-03-03T08:47:18.347Z,16.88
2023-03-03T08:48:17.295Z,16.88
2023-03-03T08:49:17.253Z,16.88
2023-03-03T08:50:17.250Z,16.88
2023-03-03T08:51:17.260Z,16.88
2023-03-03T08:52:17.275Z,16.88
2023-03-03T08:53:17.253Z,16.88
2023-03-03T08:54:17.216Z,16.88
2023-03-03T08:55:17.218Z,16.88
2023-03-03T08:56:17.216Z,16.88
2023-03-03T08:57:17.302Z,16.88
2023-03-03T08:58:17.200Z,16.88
2023-03-03T08:59:17.205Z,16.88
2023-03-03T09:00:17.160Z,16.88
2023-03-03T09:01:17.247Z,16.88
2023-03-03T09:02:17.163Z,16.88
2023-03-03T09:03:17.185Z,16.88
2023-03-03T09:04:17.207Z,16.88
2023-03-03T09:05:17.149Z,16.88
2023-03-03T09:06:17.192Z,16.88
2023-03-03T09:07:17.269Z,16.88
2023-03-03T09:08:17.192Z,16.88
2023-03-03T09:09:17.148Z,16.88
2023-03-03T09:10:17.129Z,16.88
2023-03-03T09:11:17.128Z,16.88
2023-03-03T09:12:17.130Z,16.88
2023-03-03T09:13:17.097Z,16.88
2023-03-03T09:14:17.240Z,16.88
2023-03-03T09:15:17.114Z,22.50
2023-03-03T09:16:17.109Z,22.50
2023-03-03T09:17:17.164Z,22.50
2023-03-03T09:18:17.084Z,22.50
2023-03-03T09:19:17.064Z,16.88
2023-03-03T09:20:17.047Z,22.50
2023-03-03T09:21:17.077Z,22.50
2023-03-03T09:22:17.046Z,22.50
2023-03-03T09:23:17.070Z,22.50
2023-03-03T09:24:17.031Z,22.50
2023-03-03T09:25:17.039Z,22.50
2023-03-03T09:26:17.067Z,22.50
2023-03-03T09:27:17.011Z,22.50
2023-03-03T09:28:17.072Z,22.50
2023-03-03T09:29:17.044Z,22.50
2023-03-03T09:30:16.996Z,22.50
2023-03-03T09:31:17.085Z,22.50
2023-03-03T09:32:17.008Z,22.50
2023-03-03T09:33:16.985Z,22.50
2023-03-03T09:34:17.034Z,22.50
2023-03-03T09:35:16.971Z,22.50
2023-03-03T09:36:16.973Z,22.50
2023-03-03T09:37:16.964Z,22.50
2023-03-03T09:38:16.956Z,22.50
2023-03-03T09:39:16.999Z,22.50
2023-03-03T09:40:16.996Z,22.50
2023-03-03T09:41:16.938Z,22.50
2023-03-03T09:42:16.927Z,22.50
2023-03-03T09:43:19.525Z,22.50
2023-03-03T09:44:17.003Z,22.50
2023-03-03T09:45:16.966Z,22.50
2023-03-03T09:46:16.987Z,22.50
2023-03-03T09:47:16.927Z,22.50
2023-03-03T09:48:16.913Z,22.50
2023-03-03T09:49:16.960Z,22.50
2023-03-03T09:50:16.879Z,22.50
2023-03-03T09:51:16.875Z,22.50
2023-03-03T09:52:16.862Z,22.50
2023-03-03T09:53:16.877Z,22.50
2023-03-03T09:54:16.903Z,22.50
2023-03-03T09:55:16.915Z,22.50
2023-03-03T09:56:16.894Z,22.50
2023-03-03T09:57:16.857Z,22.50
2023-03-03T09:58:16.856Z,22.50
2023-03-03T09:59:17.847Z,22.50
2023-03-03T10:00:16.892Z,22.50
2023-03-03T10:01:16.834Z,22.50
2023-03-03T10:02:16.885Z,22.50
2023-03-03T10:03:16.866Z,22.50
2023-03-03T10:04:16.882Z,22.50
2023-03-03T10:05:16.855Z,22.50
2023-03-03T10:06:16.828Z,22.50
2023-03-03T10:07:16.831Z,22.50
2023-03-03T10:08:16.771Z,22.50
2023-03-03T10:09:16.801Z,22.50
2023-03-03T10:10:16.794Z,22.50
2023-03-03T10:11:16.788Z,22.50
2023-03-03T10:12:17.857Z,22.50
2023-03-03T10:13:17.792Z,22.50
2023-03-03T10:14:16.948Z,22.50
2023-03-03T10:15:16.787Z,22.50
2023-03-03T10:16:16.771Z,28.12
2023-03-03T10:17:16.751Z,28.12
2023-03-03T10:18:16.742Z,28.12
2023-03-03T10:19:16.733Z,28.12
2023-03-03T10:20:16.745Z,28.12
2023-03-03T10:21:16.723Z,28.12
2023-03-03T10:22:16.728Z,28.12
2023-03-03T10:23:16.709Z,28.12
2023-03-03T10:24:16.717Z,28.12
2023-03-03T10:25:16.686Z,28.12
2023-03-03T10:26:16.687Z,28.12
2023-03-03T10:27:16.732Z,28.12
2023-03-03T10:28:16.657Z,28.12
2023-03-03T10:29:22.137Z,28.12
2023-03-03T10:30:26.794Z,28.12
2023-03-03T10:31:19.915Z,28.12
2023-03-03T10:32:17.740Z,28.12
2023-03-03T10:33:16.873Z,28.12
2023-03-03T10:34:16.684Z,28.12
2023-03-03T10:35:16.671Z,28.12
2023-03-03T10:36:16.635Z,28.12
2023-03-03T10:37:16.666Z,28.12
2023-03-03T10:38:16.730Z,28.12
2023-03-03T10:39:16.650Z,28.12
2023-03-03T10:40:16.665Z,28.12
2023-03-03T10:41:16.618Z,28.12
2023-03-03T10:42:16.606Z,28.12
2023-03-03T10:43:29.703Z,33.75
2023-03-03T10:44:18.612Z,33.75
2023-03-03T10:45:16.573Z,33.75
2023-03-03T10:46:16.625Z,33.75
2023-03-03T10:47:16.557Z,33.75
2023-03-03T10:48:16.611Z,33.75
2023-03-03T10:49:16.622Z,33.75
2023-03-03T10:50:16.571Z,33.75
2023-03-03T10:51:16.535Z,39.38
2023-03-03T10:52:16.513Z,39.38
2023-03-03T10:53:16.549Z,39.38
2023-03-03T10:54:16.561Z,39.38
2023-03-03T10:55:16.552Z,39.38
2023-03-03T10:56:16.509Z,39.38
2023-03-03T10:57:16.485Z,39.38
2023-03-03T10:58:16.593Z,39.38
2023-03-03T10:59:16.530Z,39.38
2023-03-03T11:00:16.512Z,39.38
2023-03-03T11:01:16.504Z,39.38
2023-03-03T11:02:16.485Z,45.00
2023-03-03T11:03:16.615Z,45.00
2023-03-03T11:04:16.528Z,45.00
2023-03-03T11:05:16.457Z,45.00
2023-03-03T11:06:16.469Z,45.00
2023-03-03T11:07:16.437Z,45.00
2023-03-03T11:08:16.447Z,45.00
2023-03-03T11:09:16.457Z,45.00
2023-03-03T11:10:16.456Z,39.38
2023-03-03T11:11:16.475Z,39.38
2023-03-03T11:12:16.444Z,39.38
2023-03-03T11:13:16.408Z,39.38
2023-03-03T11:14:16.402Z,39.38
2023-03-03T11:15:16.391Z,45.00
2023-03-03T11:16:16.422Z,45.00
2023-03-03T11:17:16.416Z,45.00
2023-03-03T11:18:16.392Z,45.00
2023-03-03T11:19:16.364Z,45.00
2023-03-03T11:20:16.347Z,45.00
2023-03-03T11:21:17.356Z,45.00
2023-03-03T11:22:16.368Z,45.00
2023-03-03T11:23:17.200Z,45.00
2023-03-03T11:24:16.339Z,45.00
2023-03-03T11:25:17.336Z,45.00
2023-03-03T11:26:16.340Z,45.00
2023-03-03T11:27:16.333Z,50.62
2023-03-03T11:28:16.355Z,50.62
2023-03-03T11:29:16.286Z,50.62
2023-03-03T11:30:16.297Z,50.62
2023-03-03T11:31:16.383Z,45.00
2023-03-03T11:32:16.438Z,45.00
2023-03-03T11:33:16.270Z,45.00
2023-03-03T11:34:16.270Z,45.00
2023-03-03T11:35:16.258Z,45.00
2023-03-03T11:36:16.304Z,45.00
2023-03-03T11:37:16.275Z,45.00
2023-03-03T11:38:16.272Z,45.00
2023-03-03T11:39:16.348Z,45.00
2023-03-03T11:40:16.267Z,45.00
2023-03-03T11:41:16.254Z,45.00
2023-03-03T11:42:16.240Z,45.00
2023-03-03T11:43:29.898Z,45.00
2023-03-03T11:44:18.241Z,45.00
2023-03-03T11:45:16.277Z,45.00
2023-03-03T11:46:16.420Z,45.00
2023-03-03T11:47:16.186Z,45.00
2023-03-03T11:48:16.339Z,45.00
2023-03-03T11:49:16.216Z,45.00
2023-03-03T11:50:16.210Z,45.00
2023-03-03T11:51:16.168Z,45.00
2023-03-03T11:52:16.169Z,45.00
2023-03-03T11:53:16.166Z,45.00
2023-03-03T11:54:16.181Z,45.00
2023-03-03T11:55:16.194Z,45.00
2023-03-03T11:56:16.324Z,45.00
2023-03-03T11:57:16.116Z,45.00
2023-03-03T11:58:16.139Z,45.00
2023-03-03T11:59:16.301Z,45.00
2023-03-03T12:00:16.159Z,39.38
2023-03-03T12:01:16.267Z,39.38
2023-03-03T12:02:16.185Z,45.00
2023-03-03T12:03:16.170Z,45.00
2023-03-03T12:04:16.136Z,45.00
2023-03-03T12:05:16.194Z,45.00
2023-03-03T12:06:16.151Z,45.00
2023-03-03T12:07:19.530Z,39.38
2023-03-03T12:08:17.176Z,45.00
2023-03-03T12:09:16.081Z,45.00
2023-03-03T12:10:16.027Z,45.00
2023-03-03T12:11:16.057Z,45.00
2023-03-03T12:12:16.041Z,45.00
2023-03-03T12:13:16.025Z,45.00
2023-03-03T12:14:16.086Z,45.00
2023-03-03T12:15:16.012Z,45.00
2023-03-03T12:16:16.579Z,45.00
2023-03-03T12:17:16.017Z,45.00
2023-03-03T12:18:16.128Z,45.00
2023-03-03T12:19:15.977Z,45.00
2023-03-03T12:20:16.018Z,45.00
2023-03-03T12:21:16.012Z,45.00
2023-03-03T12:22:16.119Z,45.00
2023-03-03T12:23:15.964Z,45.00
2023-03-03T12:24:15.967Z,45.00
2023-03-03T12:25:15.932Z,45.00
2023-03-03T12:26:15.958Z,45.00
2023-03-03T12:27:15.991Z,45.00
2023-03-03T12:28:15.955Z,45.00
2023-03-03T12:29:16.020Z,50.62
2023-03-03T12:30:15.978Z,50.62
2023-03-03T12:31:15.964Z,50.62
2023-03-03T12:32:15.949Z,50.62
2023-03-03T12:33:15.952Z,50.62
2023-03-03T12:34:15.919Z,50.62
2023-03-03T12:35:15.902Z,56.25
2023-03-03T12:36:15.859Z,56.25
2023-03-03T12:37:15.874Z,56.25
2023-03-03T12:38:15.899Z,56.25
2023-03-03T12:39:25.344Z,56.25
2023-03-03T12:40:17.876Z,50.62
2023-03-03T12:41:15.869Z,50.62
2023-03-03T12:42:15.845Z,50.62
2023-03-03T12:43:16.053Z,50.62
2023-03-03T12:44:15.865Z,50.62
2023-03-03T12:45:15.915Z,50.62
2023-03-03T12:46:15.873Z,50.62
2023-03-03T12:47:15.862Z,56.25
2023-03-03T12:48:15.819Z,56.25
2023-03-03T12:49:15.995Z,50.62
2023-03-03T12:50:15.894Z,50.62
2023-03-03T12:51:15.850Z,50.62
2023-03-03T12:52:15.817Z,50.62
2023-03-03T12:53:15.794Z,45.00
2023-03-03T12:54:15.804Z,33.75
2023-03-03T12:55:15.782Z,33.75
2023-03-03T12:56:15.783Z,33.75
2023-03-03T12:57:15.751Z,33.75
2023-03-03T12:58:15.756Z,45.00
2023-03-03T12:59:18.071Z,50.62
2023-03-03T13:00:16.752Z,50.62
2023-03-03T13:01:15.846Z,50.62
2023-03-03T13:02:15.722Z,45.00
2023-03-03T13:03:15.846Z,45.00
2023-03-03T13:04:15.722Z,45.00
2023-03-03T13:05:15.736Z,45.00
2023-03-03T13:06:15.743Z,45.00
2023-03-03T13:07:15.734Z,45.00
2023-03-03T13:08:15.774Z,45.00